Time;durP1;ratioP1;P1;durP2;ratioP2;P2;SDS_P1;SDS_P2;PMS_P1;PMS_P2;Temp;Humidity;BMP_temperature;BMP_pressure;BME280_temperature;BME280_humidity;BME280_pressure;Samples;Min_cycle;Max_cycle;Signal;HPM_P1;HPM_P2
2021/04/23 00:02:03;;;;;;;11.43;8.43;;;4.80;72.20;;;;;;5036048;28;20214;-66
2021/04/23 00:04:30;;;;;;;14.45;8.80;;;4.80;72.20;;;;;;5035662;28;20215;-66
2021/04/23 00:06:59;;;;;;;11.43;8.07;;;4.80;72.50;;;;;;5036135;28;20237;-68
2021/04/23 00:09:29;;;;;;;9.90;8.68;;;4.80;72.10;;;;;;5036086;28;20194;-66
2021/04/23 00:11:59;;;;;;;12.77;9.25;;;4.80;71.20;;;;;;5036165;28;20206;-66
2021/04/23 00:14:28;;;;;;;12.15;8.68;;;4.80;70.80;;;;;;5035459;28;20676;-66
2021/04/23 00:16:55;;;;;;;10.45;7.65;;;4.80;70.90;;;;;;5035945;28;20191;-66
2021/04/23 00:19:25;;;;;;;13.80;8.15;;;4.80;70.80;;;;;;5035341;28;20193;-66
2021/04/23 00:21:52;;;;;;;8.70;7.60;;;4.80;70.70;;;;;;5035798;28;20190;-66
2021/04/23 00:24:19;;;;;;;13.10;8.30;;;4.70;70.70;;;;;;5035574;28;20226;-71
2021/04/23 00:26:46;;;;;;;11.38;8.15;;;4.80;70.90;;;;;;5035481;28;20195;-67
2021/04/23 00:29:13;;;;;;;10.35;8.23;;;4.70;71.00;;;;;;5035435;28;20191;-67
2021/04/23 00:31:40;;;;;;;9.35;6.88;;;4.70;71.10;;;;;;5035564;28;20191;-67
2021/04/23 00:34:08;;;;;;;9.68;7.13;;;4.60;70.90;;;;;;5034618;28;20654;-67
2021/04/23 00:36:37;;;;;;;10.60;7.20;;;4.50;70.30;;;;;;5035538;28;20658;-67
2021/04/23 00:39:05;;;;;;;12.07;8.35;;;4.50;69.90;;;;;;5035426;28;20261;-67
2021/04/23 00:41:35;;;;;;;9.77;7.57;;;4.40;70.20;;;;;;5035278;28;20262;-67
2021/04/23 00:44:02;;;;;;;9.52;7.07;;;4.40;70.10;;;;;;5035175;28;20697;-67
2021/04/23 00:46:31;;;;;;;11.95;8.43;;;4.40;69.50;;;;;;5035035;28;20592;-67
2021/04/23 00:48:59;;;;;;;14.40;6.78;;;4.40;70.60;;;;;;5035286;28;20198;-68
2021/04/23 00:51:28;;;;;;;10.25;7.90;;;4.30;70.10;;;;;;5035443;28;20191;-66
2021/04/23 00:53:57;;;;;;;10.45;7.22;;;4.20;70.40;;;;;;5034751;28;20199;-67
2021/04/23 00:56:26;;;;;;;9.48;7.18;;;4.20;70.70;;;;;;5035304;28;20198;-66
2021/04/23 00:58:53;;;;;;;13.48;8.30;;;4.20;70.60;;;;;;5035040;28;20191;-67
2021/04/23 01:01:24;;;;;;;11.10;7.90;;;4.20;70.00;;;;;;5034465;28;20673;-67
2021/04/23 01:03:51;;;;;;;10.18;7.35;;;4.10;70.40;;;;;;5035298;28;20206;-67
2021/04/23 01:06:20;;;;;;;15.55;9.30;;;4.10;70.70;;;;;;5034769;28;20290;-67
2021/04/23 01:08:47;;;;;;;13.35;9.20;;;4.00;69.90;;;;;;5034259;28;20286;-67
2021/04/23 01:11:16;;;;;;;17.50;10.10;;;4.00;70.40;;;;;;5034026;28;20541;-67
2021/04/23 01:13:43;;;;;;;14.95;10.23;;;3.90;70.10;;;;;;5034651;28;20194;-66
2021/04/23 01:16:14;;;;;;;12.93;9.45;;;3.90;71.30;;;;;;5035034;28;20707;-67
2021/04/23 01:18:41;;;;;;;11.98;8.02;;;3.90;70.80;;;;;;5034423;28;20649;-67
2021/04/23 01:21:10;;;;;;;12.02;7.57;;;4.00;70.80;;;;;;5034674;28;20593;-67
2021/04/23 01:23:38;;;;;;;14.50;9.13;;;4.00;70.90;;;;;;5034133;28;20645;-67
2021/04/23 01:26:07;;;;;;;11.45;8.20;;;4.00;70.50;;;;;;5034364;28;20195;-67
2021/04/23 01:28:34;;;;;;;14.75;8.85;;;3.90;69.80;;;;;;5034727;28;20197;-67
2021/04/23 01:31:03;;;;;;;7.72;6.72;;;3.90;69.00;;;;;;5034123;28;20270;-67
2021/04/23 01:33:30;;;;;;;11.90;7.78;;;3.80;69.70;;;;;;5033887;28;20638;-67
2021/04/23 01:35:57;;;;;;;11.00;7.65;;;3.80;70.70;;;;;;5034399;28;20184;-67
2021/04/23 01:38:25;;;;;;;8.30;7.10;;;3.80;70.90;;;;;;5033949;28;20279;-67
2021/04/23 01:40:52;;;;;;;10.63;7.18;;;3.80;71.10;;;;;;5034174;28;20222;-66
2021/04/23 01:43:20;;;;;;;8.18;6.60;;;3.80;71.60;;;;;;5033774;28;20202;-67
2021/04/23 01:45:47;;;;;;;9.18;7.13;;;3.80;71.20;;;;;;5034064;28;20223;-67
2021/04/23 01:48:15;;;;;;;9.70;7.43;;;3.80;70.70;;;;;;5033814;28;20215;-66
2021/04/23 01:50:42;;;;;;;7.97;5.85;;;3.80;70.30;;;;;;5034077;28;20708;-67
2021/04/23 01:53:08;;;;;;;9.32;6.03;;;3.70;70.80;;;;;;5033228;28;20184;-67
2021/04/23 01:55:36;;;;;;;8.98;6.18;;;3.70;70.50;;;;;;5034320;28;20203;-67
2021/04/23 01:58:04;;;;;;;8.07;5.55;;;3.70;70.00;;;;;;5033156;28;20270;-67
2021/04/23 02:00:34;;;;;;;8.63;5.88;;;3.70;68.90;;;;;;5033838;28;20658;-66
2021/04/23 02:03:03;;;;;;;7.10;5.30;;;3.70;68.80;;;;;;5033171;28;20556;-67
2021/04/23 02:05:31;;;;;;;10.48;6.43;;;3.60;67.30;;;;;;5033910;28;20219;-66
2021/04/23 02:07:59;;;;;;;9.13;6.75;;;3.50;67.40;;;;;;5033227;28;20704;-67
2021/04/23 02:10:29;;;;;;;7.10;5.63;;;3.40;67.10;;;;;;5033858;28;20198;-68
2021/04/23 02:12:57;;;;;;;6.63;5.65;;;3.30;67.70;;;;;;5033174;28;20219;-67
2021/04/23 02:15:27;;;;;;;9.55;5.97;;;3.30;67.60;;;;;;5032885;28;20183;-66
2021/04/23 02:17:55;;;;;;;8.93;5.50;;;3.30;67.80;;;;;;5033256;28;20245;-66
2021/04/23 02:20:26;;;;;;;10.52;7.25;;;3.30;68.30;;;;;;5032390;28;20650;-67
2021/04/23 02:22:52;;;;;;;8.00;5.90;;;3.20;68.50;;;;;;5033529;28;20187;-66
2021/04/23 02:25:22;;;;;;;9.18;6.35;;;3.10;68.40;;;;;;5033038;28;20659;-67
2021/04/23 02:27:50;;;;;;;9.00;6.80;;;3.10;68.80;;;;;;5033010;28;20602;-66
2021/04/23 02:30:25;;;;;;;9.25;6.43;;;3.10;69.00;;;;;;5033373;28;20798;-66
2021/04/23 02:32:52;;;;;;;11.18;7.25;;;3.10;68.70;;;;;;5032771;28;20649;-67
2021/04/23 02:35:20;;;;;;;13.23;7.28;;;3.10;68.60;;;;;;5033275;28;20187;-70
2021/04/23 02:37:47;;;;;;;9.20;5.68;;;3.00;68.40;;;;;;5013452;28;20199;-67
2021/04/23 02:40:16;;;;;;;12.23;7.60;;;2.90;68.10;;;;;;5013292;28;20192;-66
2021/04/23 02:42:44;;;;;;;9.82;6.97;;;2.90;69.30;;;;;;5032220;28;20190;-67
2021/04/23 02:45:14;;;;;;;9.20;6.10;;;2.80;70.10;;;;;;5032682;28;20218;-68
2021/04/23 02:47:42;;;;;;;7.93;4.82;;;2.80;70.50;;;;;;5032897;28;20206;-66
2021/04/23 02:50:11;;;;;;;7.35;5.28;;;2.80;70.90;;;;;;5033138;28;20191;-66
2021/04/23 02:52:38;;;;;;;12.10;6.38;;;2.80;71.30;;;;;;5032982;28;20606;-66
2021/04/23 02:55:07;;;;;;;11.00;5.80;;;2.80;71.90;;;;;;5033197;28;20540;-66
2021/04/23 02:57:33;;;;;;;8.32;5.10;;;2.80;71.50;;;;;;5032889;28;20277;-67
2021/04/23 03:00:00;;;;;;;9.73;6.25;;;2.80;72.00;;;;;;5032754;28;20198;-66
2021/04/23 03:02:27;;;;;;;9.35;6.45;;;2.80;71.60;;;;;;5032446;28;20187;-66
2021/04/23 03:04:55;;;;;;;14.10;7.82;;;2.80;71.40;;;;;;5032754;28;20219;-66
2021/04/23 03:07:21;;;;;;;10.00;5.88;;;2.80;71.40;;;;;;5032020;28;20190;-68
2021/04/23 03:09:50;;;;;;;10.25;6.65;;;2.80;71.60;;;;;;5032875;28;20199;-67
2021/04/23 03:12:17;;;;;;;9.18;6.78;;;2.80;72.00;;;;;;5032366;28;20191;-67
2021/04/23 03:14:44;;;;;;;8.60;5.93;;;2.70;71.40;;;;;;5032789;28;20261;-66
2021/04/23 03:17:11;;;;;;;10.40;7.68;;;2.70;71.80;;;;;;5031587;28;20191;-69
2021/04/23 03:19:37;;;;;;;15.02;7.50;;;2.60;71.80;;;;;;5032305;28;20241;-66
2021/04/23 03:22:05;;;;;;;10.45;7.95;;;2.60;72.50;;;;;;5032702;28;20194;-67
2021/04/23 03:24:31;;;;;;;8.35;6.80;;;2.70;72.10;;;;;;5032060;28;20207;-67
2021/04/23 03:26:58;;;;;;;9.48;6.22;;;2.70;71.60;;;;;;5032763;28;20206;-67
2021/04/23 03:29:25;;;;;;;13.07;8.40;;;2.70;70.90;;;;;;5032459;28;20183;-67
2021/04/23 03:31:52;;;;;;;9.38;7.40;;;2.60;71.50;;;;;;5031929;28;20213;-66
2021/04/23 03:34:18;;;;;;;11.68;7.53;;;2.50;72.50;;;;;;5032337;28;20198;-67
2021/04/23 03:36:45;;;;;;;9.95;7.18;;;2.50;72.80;;;;;;5032476;28;20191;-66
2021/04/23 03:39:13;;;;;;;10.40;6.95;;;2.50;72.50;;;;;;5031549;28;20660;-66
2021/04/23 03:41:40;;;;;;;10.48;7.15;;;2.50;72.00;;;;;;5032225;28;20233;-66
2021/04/23 03:44:07;;;;;;;10.30;7.57;;;2.50;71.80;;;;;;5031880;28;20670;-66
2021/04/23 03:46:34;;;;;;;10.05;8.00;;;2.50;71.40;;;;;;5032300;28;20278;-68
2021/04/23 03:49:01;;;;;;;19.08;11.63;;;2.60;71.60;;;;;;5031784;28;20193;-67
2021/04/23 03:51:28;;;;;;;16.58;10.50;;;2.60;71.90;;;;;;5032241;28;20187;-67
2021/04/23 03:53:56;;;;;;;11.27;7.50;;;2.60;71.80;;;;;;5032314;28;20179;-67
2021/04/23 03:56:24;;;;;;;14.15;8.98;;;2.70;71.70;;;;;;5032027;28;20186;-66
2021/04/23 03:58:52;;;;;;;10.68;7.15;;;2.70;70.80;;;;;;5032150;28;20241;-66
2021/04/23 04:01:22;;;;;;;7.93;5.93;;;2.70;70.00;;;;;;5032247;28;20195;-67
2021/04/23 04:03:50;;;;;;;11.30;7.28;;;2.70;69.30;;;;;;5031859;28;20195;-68
2021/04/23 04:06:17;;;;;;;12.32;7.95;;;2.70;69.00;;;;;;5031978;28;20195;-66
2021/04/23 04:08:43;;;;;;;10.85;7.05;;;2.70;69.30;;;;;;5031911;28;20191;-66
2021/04/23 04:11:10;;;;;;;8.90;6.03;;;2.60;69.50;;;;;;5032377;28;20194;-66
2021/04/23 04:13:38;;;;;;;8.80;6.10;;;2.60;69.50;;;;;;5032384;28;20202;-66
2021/04/23 04:16:05;;;;;;;14.07;7.55;;;2.50;69.20;;;;;;5031541;28;20206;-67
2021/04/23 04:18:32;;;;;;;8.35;6.00;;;2.50;69.10;;;;;;5031570;28;20192;-66
2021/04/23 04:20:59;;;;;;;7.18;5.25;;;2.50;69.50;;;;;;5032221;28;20198;-67
2021/04/23 04:23:26;;;;;;;10.77;5.80;;;2.50;68.80;;;;;;5032192;28;20195;-67
2021/04/23 04:25:56;;;;;;;7.93;5.20;;;2.40;68.10;;;;;;5032255;28;20242;-66
2021/04/23 04:28:23;;;;;;;9.25;6.30;;;2.40;67.80;;;;;;5032045;28;20218;-66
2021/04/23 04:30:51;;;;;;;8.57;6.60;;;2.30;67.70;;;;;;5031861;28;20197;-68
2021/04/23 04:33:18;;;;;;;8.32;6.25;;;2.30;68.50;;;;;;5032180;28;20202;-67
2021/04/23 04:35:45;;;;;;;12.20;6.43;;;2.30;68.20;;;;;;5031797;28;20540;-66
2021/04/23 04:38:13;;;;;;;10.57;7.00;;;2.30;68.30;;;;;;5032212;28;20191;-66
2021/04/23 04:40:42;;;;;;;11.43;7.40;;;2.30;68.60;;;;;;5031761;28;20695;-66
2021/04/23 04:43:10;;;;;;;18.55;13.10;;;2.30;70.40;;;;;;5031648;28;20205;-66
2021/04/23 04:45:38;;;;;;;19.38;12.95;;;2.20;71.00;;;;;;5034946;28;20211;-69
2021/04/23 04:48:08;;;;;;;22.85;9.98;;;2.10;71.90;;;;;;5035785;28;20241;-66
2021/04/23 04:50:37;;;;;;;14.63;8.02;;;2.00;72.70;;;;;;5035069;28;20218;-66
2021/04/23 04:53:06;;;;;;;13.93;8.07;;;1.90;73.10;;;;;;5035877;28;20195;-67
2021/04/23 04:55:35;;;;;;;11.85;7.97;;;1.90;72.60;;;;;;5032705;28;20552;-67
2021/04/23 04:58:04;;;;;;;13.95;9.35;;;1.90;74.00;;;;;;5030339;28;20277;-67
2021/04/23 05:00:32;;;;;;;13.07;8.15;;;1.90;74.20;;;;;;5033412;28;20195;-66
2021/04/23 05:02:59;;;;;;;17.95;8.40;;;2.00;73.80;;;;;;5033704;28;20195;-66
2021/04/23 05:05:29;;;;;;;11.63;7.85;;;2.10;74.00;;;;;;5032991;28;20560;-67
2021/04/23 05:07:56;;;;;;;15.90;8.40;;;2.10;74.40;;;;;;5032695;28;20520;-67
2021/04/23 05:10:23;;;;;;;11.05;7.00;;;2.20;74.70;;;;;;5031929;28;20187;-66
2021/04/23 05:12:51;;;;;;;12.50;8.80;;;2.30;75.00;;;;;;5032782;28;20234;-68
2021/04/23 05:15:19;;;;;;;10.85;7.97;;;2.30;75.30;;;;;;5029574;28;20655;-66
2021/04/23 05:17:47;;;;;;;12.10;7.30;;;2.40;75.80;;;;;;5032720;28;20583;-66
2021/04/23 05:20:17;;;;;;;13.90;8.60;;;2.50;75.90;;;;;;5033284;28;20195;-66
2021/04/23 05:22:45;;;;;;;11.73;6.78;;;2.60;75.90;;;;;;5033142;28;20195;-67
2021/04/23 05:25:14;;;;;;;14.32;8.15;;;2.70;76.30;;;;;;5030197;28;20221;-67
2021/04/23 05:27:41;;;;;;;12.32;8.45;;;2.80;76.40;;;;;;5033175;28;20199;-68
2021/04/23 05:30:12;;;;;;;11.05;7.18;;;3.00;76.60;;;;;;5032325;28;20199;-67
2021/04/23 05:32:40;;;;;;;13.20;7.95;;;3.10;76.50;;;;;;5033041;28;20649;-67
2021/04/23 05:35:08;;;;;;;11.00;7.75;;;3.20;76.30;;;;;;5033118;28;20219;-67
2021/04/23 05:37:36;;;;;;;13.40;8.32;;;3.30;76.30;;;;;;5033120;28;20195;-67
2021/04/23 05:40:06;;;;;;;17.27;8.43;;;3.50;76.40;;;;;;5032508;28;20286;-66
2021/04/23 05:42:33;;;;;;;13.65;8.10;;;3.60;76.20;;;;;;5033162;28;20202;-68
2021/04/23 05:44:59;;;;;;;14.25;8.07;;;3.70;75.80;;;;;;5032445;28;20219;-67
2021/04/23 05:47:26;;;;;;;15.23;8.35;;;3.80;75.50;;;;;;5032729;28;20646;-68
2021/04/23 05:49:53;;;;;;;11.13;7.60;;;3.80;75.80;;;;;;5032695;28;20282;-67
2021/04/23 05:52:21;;;;;;;14.98;7.80;;;4.00;75.60;;;;;;5032334;28;20187;-69
2021/04/23 05:54:47;;;;;;;12.90;7.15;;;4.20;75.10;;;;;;5032822;28;20462;-67
2021/04/23 05:57:15;;;;;;;10.43;7.15;;;4.30;75.00;;;;;;5032206;28;20256;-67
2021/04/23 05:59:41;;;;;;;11.35;6.85;;;4.40;73.70;;;;;;5032602;28;20210;-67
2021/04/23 06:02:09;;;;;;;15.98;7.60;;;4.50;74.30;;;;;;5031951;28;20257;-67
2021/04/23 06:04:36;;;;;;;11.55;6.97;;;4.60;74.30;;;;;;5032500;28;20211;-68
2021/04/23 06:07:02;;;;;;;11.68;6.65;;;4.80;73.10;;;;;;5031456;28;20184;-68
2021/04/23 06:09:29;;;;;;;12.93;6.70;;;4.80;72.60;;;;;;5032305;28;20195;-67
2021/04/23 06:11:56;;;;;;;11.18;6.95;;;4.90;72.90;;;;;;5032013;28;20209;-67
2021/04/23 06:14:24;;;;;;;16.30;7.15;;;5.00;72.40;;;;;;5032570;28;20285;-67
2021/04/23 06:16:51;;;;;;;10.38;6.25;;;5.20;72.90;;;;;;5031446;28;20218;-67
2021/04/23 06:19:18;;;;;;;16.85;7.90;;;5.30;72.20;;;;;;5031396;28;20205;-68
2021/04/23 06:21:44;;;;;;;10.82;7.30;;;5.50;72.80;;;;;;5032192;28;20227;-70
2021/04/23 06:24:11;;;;;;;10.13;7.35;;;5.70;72.60;;;;;;5030594;28;20190;-68
2021/04/23 06:26:38;;;;;;;10.68;6.72;;;5.80;71.40;;;;;;5031726;28;20657;-68
2021/04/23 06:29:04;;;;;;;11.35;7.28;;;6.00;70.90;;;;;;5032070;28;20274;-68
2021/04/23 06:31:32;;;;;;;16.60;7.97;;;6.10;70.90;;;;;;5032238;28;20195;-68
2021/04/23 06:33:59;;;;;;;11.48;7.20;;;6.30;70.20;;;;;;5032249;28;20197;-67
2021/04/23 06:36:25;;;;;;;13.27;8.32;;;6.40;70.10;;;;;;5027078;28;20187;-69
2021/04/23 06:38:52;;;;;;;11.32;7.50;;;6.70;71.50;;;;;;5028893;28;20217;-67
2021/04/23 06:41:18;;;;;;;15.15;8.27;;;6.80;71.30;;;;;;5030964;28;20627;-68
2021/04/23 06:43:45;;;;;;;12.27;8.18;;;7.00;71.10;;;;;;5031418;28;20614;-67
2021/04/23 06:46:13;;;;;;;11.65;6.50;;;7.20;69.70;;;;;;5030643;28;20214;-68
2021/04/23 06:48:40;;;;;;;10.48;7.72;;;7.30;67.50;;;;;;5026905;28;20633;-67
2021/04/23 06:51:06;;;;;;;12.85;7.13;;;7.40;68.50;;;;;;5031300;28;20199;-67
2021/04/23 06:53:33;;;;;;;13.23;7.57;;;7.50;68.00;;;;;;5031665;28;20719;-67
2021/04/23 06:56:01;;;;;;;10.48;7.55;;;7.70;68.30;;;;;;5030983;28;20194;-70
2021/04/23 06:58:29;;;;;;;8.93;6.70;;;7.90;68.20;;;;;;5027505;28;20194;-68
2021/04/23 07:00:57;;;;;;;11.90;7.70;;;8.10;66.80;;;;;;5031109;28;20832;-68
2021/04/23 07:03:24;;;;;;;14.60;7.20;;;8.20;64.70;;;;;;5031598;28;20191;-67
2021/04/23 07:05:52;;;;;;;8.02;6.15;;;8.40;65.00;;;;;;5030362;28;20219;-68
2021/04/23 07:08:19;;;;;;;12.40;8.05;;;8.60;64.40;;;;;;5031836;28;20286;-68
2021/04/23 07:10:45;;;;;;;14.15;7.32;;;8.70;61.90;;;;;;5032854;28;20700;-68
2021/04/23 07:13:13;;;;;;;10.55;6.82;;;8.90;60.70;;;;;;5032736;28;20282;-68
2021/04/23 07:15:39;;;;;;;12.40;7.55;;;9.10;60.90;;;;;;5032252;28;20199;-68
2021/04/23 07:18:06;;;;;;;10.27;6.50;;;9.20;59.80;;;;;;5033027;28;20669;-68
2021/04/23 07:20:33;;;;;;;14.25;6.43;;;9.30;59.30;;;;;;5032375;28;20217;-69
2021/04/23 07:23:01;;;;;;;8.80;5.63;;;9.40;55.50;;;;;;5032913;28;20206;-68
2021/04/23 07:25:28;;;;;;;10.27;5.93;;;9.60;56.60;;;;;;5032461;28;20628;-71
2021/04/23 07:27:58;;;;;;;9.95;6.50;;;9.80;57.20;;;;;;5032830;28;20199;-68
2021/04/23 07:30:30;;;;;;;11.13;6.90;;;10.00;56.60;;;;;;5032321;28;20669;-71
2021/04/23 07:32:59;;;;;;;12.10;7.80;;;10.20;57.00;;;;;;5032729;28;20242;-70
2021/04/23 07:35:26;;;;;;;12.77;7.20;;;10.40;55.80;;;;;;5032194;28;20646;-69
2021/04/23 07:37:52;;;;;;;15.70;7.15;;;10.60;55.60;;;;;;5032654;28;20195;-68
2021/04/23 07:40:20;;;;;;;14.23;7.32;;;10.80;53.90;;;;;;5032048;28;20709;-68
2021/04/23 07:42:48;;;;;;;12.80;6.00;;;11.00;52.90;;;;;;5032730;28;20601;-69
2021/04/23 07:45:15;;;;;;;12.90;7.45;;;11.20;52.00;;;;;;5032142;28;20659;-69
2021/04/23 07:47:43;;;;;;;9.98;5.97;;;11.40;50.80;;;;;;5032047;28;20193;-69
2021/04/23 07:50:11;;;;;;;9.75;5.75;;;11.60;48.10;;;;;;5032200;28;20241;-69
2021/04/23 07:52:37;;;;;;;10.10;6.60;;;11.70;46.70;;;;;;5032076;28;20665;-69
2021/04/23 07:55:06;;;;;;;11.02;7.60;;;11.90;47.90;;;;;;5032416;28;20198;-68
2021/04/23 07:57:35;;;;;;;12.80;7.22;;;12.10;47.70;;;;;;5031831;28;20183;-71
2021/04/23 08:00:04;;;;;;;12.40;6.95;;;12.30;48.10;;;;;;5032264;28;20724;-69
2021/04/23 08:02:30;;;;;;;8.90;7.20;;;12.50;48.80;;;;;;5032465;28;20669;-69
2021/04/23 08:04:57;;;;;;;14.98;8.18;;;12.70;49.40;;;;;;5031720;28;20223;-69
2021/04/23 08:07:23;;;;;;;10.20;7.05;;;13.00;49.40;;;;;;5032407;28;20640;-75
2021/04/23 08:09:50;;;;;;;12.23;7.90;;;13.20;47.30;;;;;;5031804;28;20187;-69
2021/04/23 08:12:16;;;;;;;10.98;7.28;;;13.40;47.00;;;;;;5032039;28;20219;-69
2021/04/23 08:14:44;;;;;;;9.57;6.78;;;13.60;44.30;;;;;;5032317;28;20195;-69
2021/04/23 08:17:10;;;;;;;11.13;6.95;;;13.80;43.20;;;;;;5031747;28;20183;-69
2021/04/23 08:19:37;;;;;;;8.73;7.60;;;13.90;44.20;;;;;;5033660;28;20190;-68
2021/04/23 08:22:05;;;;;;;9.38;6.40;;;14.10;42.00;;;;;;5035914;28;20195;-69
2021/04/23 08:24:31;;;;;;;16.40;7.97;;;14.20;42.90;;;;;;5035612;28;20346;-71
2021/04/23 08:26:58;;;;;;;8.70;7.30;;;14.40;41.40;;;;;;5036364;28;20191;-70
2021/04/23 08:29:25;;;;;;;13.23;8.17;;;14.60;42.80;;;;;;5036091;28;20857;-68
2021/04/23 08:31:52;;;;;;;10.73;6.93;;;14.90;41.40;;;;;;5035217;28;20446;-69
2021/04/23 08:34:19;;;;;;;10.17;7.30;;;15.10;40.10;;;;;;5035735;28;20524;-69
2021/04/23 08:36:45;;;;;;;8.57;7.00;;;15.30;38.80;;;;;;5035158;28;20434;-69
2021/04/23 08:39:12;;;;;;;11.00;7.57;;;15.40;39.80;;;;;;5035792;28;20438;-69
2021/04/23 08:41:41;;;;;;;10.30;6.37;;;15.60;41.20;;;;;;5034784;28;20469;-69
2021/04/23 08:44:08;;;;;;;9.73;7.00;;;15.80;42.10;;;;;;5035614;28;20483;-69
2021/04/23 08:46:36;;;;;;;10.73;6.20;;;15.90;37.50;;;;;;5034988;28;20489;-69
2021/04/23 08:49:07;;;;;;;12.20;6.87;;;16.10;37.30;;;;;;5035470;28;20480;-69
2021/04/23 08:51:35;;;;;;;9.43;5.83;;;16.30;38.00;;;;;;5035062;28;20438;-69
2021/04/23 08:54:06;;;;;;;8.50;4.93;;;16.40;37.40;;;;;;5035504;28;20936;-69
2021/04/23 08:56:33;;;;;;;16.73;5.27;;;16.60;34.90;;;;;;5035067;28;20445;-70
2021/04/23 08:59:00;;;;;;;10.97;5.77;;;16.70;35.30;;;;;;5035382;28;20438;-70
2021/04/23 09:01:27;;;;;;;11.00;4.73;;;16.80;34.40;;;;;;5035030;28;20452;-69
2021/04/23 09:03:53;;;;;;;9.33;4.93;;;17.00;32.80;;;;;;5035402;28;20445;-69
2021/04/23 09:06:24;;;;;;;11.90;5.30;;;17.10;29.70;;;;;;5034847;28;20538;-69
2021/04/23 09:09:03;;;;;;;7.00;4.90;;;17.10;29.10;;;;;;5035056;28;20438;-68
2021/04/23 09:11:33;;;;;;;8.80;4.70;;;17.20;30.40;;;;;;5034498;28;20434;-69
2021/04/23 09:14:03;;;;;;;10.83;4.30;;;17.30;29.40;;;;;;5034883;28;20793;-69
2021/04/23 09:16:53;;;;;;;15.07;5.03;;;17.30;29.70;;;;;;5034713;28;20441;-68
2021/04/23 09:19:23;;;;;;;8.83;4.70;;;17.40;30.00;;;;;;5034938;28;20794;-68
2021/04/23 09:21:53;;;;;;;10.87;5.27;;;17.60;30.00;;;;;;5034511;28;20441;-68
2021/04/23 09:24:22;;;;;;;9.20;4.60;;;17.70;28.60;;;;;;5034582;28;20912;-68
2021/04/23 09:26:50;;;;;;;8.70;4.33;;;17.70;29.40;;;;;;5034439;28;20819;-69
2021/04/23 09:29:39;;;;;;;8.47;5.00;;;17.90;29.40;;;;;;5014499;28;20531;-68
2021/04/23 09:32:14;;;;;;;6.63;4.10;;;18.10;31.00;;;;;;5026991;28;20449;-68
2021/04/23 09:34:48;;;;;;;12.17;4.10;;;18.30;30.40;;;;;;5034323;28;20530;-69
2021/04/23 09:37:17;;;;;;;10.57;4.80;;;18.40;30.80;;;;;;5032634;28;20461;-68
2021/04/23 09:39:45;;;;;;;14.97;3.70;;;18.60;30.50;;;;;;5033794;28;20449;-69
2021/04/23 09:42:12;;;;;;;7.27;3.90;;;18.70;26.60;;;;;;5033811;28;20474;-68
2021/04/23 09:44:40;;;;;;;5.20;3.23;;;18.70;27.80;;;;;;5033900;28;20438;-67
2021/04/23 09:47:11;;;;;;;8.13;5.27;;;18.70;24.50;;;;;;5034883;28;20438;-68
2021/04/23 09:49:38;;;;;;;4.70;3.40;;;18.70;25.30;;;;;;5034166;28;20962;-68
2021/04/23 09:52:08;;;;;;;6.63;4.10;;;18.80;25.40;;;;;;5034309;28;20795;-68
2021/04/23 09:54:36;;;;;;;9.03;4.60;;;18.80;28.00;;;;;;5034108;28;20430;-68
2021/04/23 09:57:14;;;;;;;9.00;4.57;;;18.90;28.50;;;;;;5034613;28;20521;-68
2021/04/23 09:59:51;;;;;;;7.93;4.90;;;19.00;27.40;;;;;;5033696;28;20445;-68
2021/04/23 10:02:19;;;;;;;10.63;4.37;;;19.10;27.30;;;;;;5032997;28;20998;-69
2021/04/23 10:04:46;;;;;;;8.90;4.60;;;19.30;28.00;;;;;;5033531;28;21420;-69
2021/04/23 10:07:22;;;;;;;7.93;4.17;;;19.40;27.80;;;;;;5033064;28;20492;-69
2021/04/23 10:10:02;;;;;;;8.43;4.10;;;19.60;27.90;;;;;;5034178;28;20429;-69
2021/04/23 10:12:33;;;;;;;5.43;4.37;;;19.70;27.40;;;;;;5033630;28;20517;-69
2021/04/23 10:15:01;;;;;;;9.40;4.40;;;19.70;26.70;;;;;;5034351;28;20438;-69
2021/04/23 10:17:28;;;;;;;9.23;4.57;;;19.80;25.80;;;;;;5033795;28;20438;-68
2021/04/23 10:19:55;;;;;;;9.67;3.80;;;19.80;24.30;;;;;;5034352;28;20441;-69
2021/04/23 10:22:23;;;;;;;8.33;3.83;;;19.90;24.70;;;;;;5033710;28;20473;-69
2021/04/23 10:24:50;;;;;;;10.90;3.93;;;20.00;25.80;;;;;;5033396;28;20505;-69
2021/04/23 10:27:19;;;;;;;6.63;4.10;;;20.00;25.90;;;;;;5032077;28;20869;-69
2021/04/23 10:29:47;;;;;;;5.90;3.70;;;20.10;25.30;;;;;;5033630;28;20452;-69
2021/04/23 10:32:14;;;;;;;9.90;4.00;;;20.10;24.60;;;;;;5032677;28;20438;-69
2021/04/23 10:34:42;;;;;;;4.80;3.90;;;20.10;23.80;;;;;;5033574;28;20441;-69
2021/04/23 10:37:09;;;;;;;8.20;4.07;;;20.00;24.70;;;;;;5033947;28;20446;-69
2021/04/23 10:39:37;;;;;;;8.20;4.63;;;20.10;25.00;;;;;;5033382;28;20533;-69
2021/04/23 10:42:04;;;;;;;6.63;4.00;;;20.20;23.70;;;;;;5033012;28;20557;-69
2021/04/23 10:44:51;;;;;;;7.80;3.50;;;20.20;22.10;;;;;;5022030;28;20457;-70
2021/04/23 10:47:30;;;;;;;7.23;3.40;;;20.10;21.70;;;;;;5032682;28;20442;-68
2021/04/23 10:50:10;;;;;;;5.63;3.10;;;19.90;20.30;;;;;;5033219;28;20500;-70
2021/04/23 10:52:56;;;;;;;4.13;3.20;;;19.70;19.90;;;;;;5033567;28;20444;-69
2021/04/23 10:55:36;;;;;;;3.87;2.40;;;19.60;21.00;;;;;;5032313;28;20529;-69
2021/04/23 10:58:03;;;;;;;6.97;3.57;;;19.60;22.90;;;;;;5033067;28;20987;-69
2021/04/23 11:00:33;;;;;;;5.43;2.70;;;19.70;22.50;;;;;;5032859;28;20644;-69
2021/04/23 11:03:28;;;;;;;8.00;4.13;;;19.70;21.90;;;;;;5033145;28;20993;-68
2021/04/23 11:05:57;;;;;;;6.23;2.93;;;19.90;22.70;;;;;;5032756;28;20556;-69
2021/04/23 11:08:24;;;;;;;4.20;2.67;;;20.00;21.10;;;;;;5033262;28;20465;-69
2021/04/23 11:11:13;;;;;;;4.63;2.60;;;20.00;22.40;;;;;;5029003;28;20540;-69
2021/04/23 11:13:41;;;;;;;7.53;2.50;;;20.00;20.50;;;;;;5031215;28;20438;-69
2021/04/23 11:16:28;;;;;;;4.77;2.77;;;20.00;19.10;;;;;;5030467;28;20894;-69
2021/04/23 11:18:56;;;;;;;4.30;2.30;;;19.90;19.80;;;;;;5030906;28;20441;-71
2021/04/23 11:21:39;;;;;;;4.37;2.60;;;19.80;18.10;;;;;;5016583;28;20517;-69
2021/04/23 11:38:13;;;;;;;6.30;3.10;;;19.40;18.00;;;;;;5122569;27;20577;-68
2021/04/23 11:40:40;;;;;;;4.73;2.70;;;19.80;20.20;;;;;;5108373;28;20438;-67
2021/04/23 11:43:06;;;;;;;4.67;2.00;;;19.90;22.00;;;;;;5109941;28;20446;-68
2021/04/23 11:45:35;;;;;;;7.40;2.33;;;20.00;21.70;;;;;;5109269;28;20948;-68
2021/04/23 11:48:09;;;;;;;4.23;2.53;;;20.00;19.60;;;;;;5109290;28;20441;-68
2021/04/23 11:50:38;;;;;;;3.47;2.10;;;20.00;19.80;;;;;;5109359;28;20437;-68
2021/04/23 11:53:06;;;;;;;4.40;2.90;;;20.00;19.90;;;;;;5110025;28;20814;-67
2021/04/23 11:55:35;;;;;;;5.17;2.37;;;20.20;22.00;;;;;;5107758;28;20510;-67
2021/04/23 11:58:04;;;;;;;6.30;3.00;;;20.30;21.00;;;;;;5107190;28;20507;-68
2021/04/23 12:00:31;;;;;;;5.90;2.90;;;20.30;20.90;;;;;;5108590;28;20431;-70
2021/04/23 12:02:58;;;;;;;5.53;2.20;;;20.40;20.00;;;;;;5109548;28;20431;-67
2021/04/23 12:05:28;;;;;;;5.40;2.60;;;20.50;21.00;;;;;;5108823;28;20434;-68
2021/04/23 12:07:56;;;;;;;5.70;2.83;;;20.70;20.60;;;;;;5110055;28;20809;-68
2021/04/23 12:10:25;;;;;;;5.43;3.00;;;20.80;21.10;;;;;;5107999;28;20947;-68
2021/04/23 12:12:52;;;;;;;6.10;2.50;;;20.80;19.90;;;;;;5108925;28;20439;-68
2021/04/23 12:15:23;;;;;;;4.37;2.43;;;20.60;19.40;;;;;;5100712;28;20434;-68
2021/04/23 12:17:50;;;;;;;7.90;2.57;;;20.70;20.20;;;;;;5106913;28;20445;-68
2021/04/23 12:20:23;;;;;;;4.63;2.53;;;20.70;18.20;;;;;;5108170;28;20441;-68
2021/04/23 12:22:52;;;;;;;4.50;2.97;;;20.70;18.50;;;;;;5108116;28;21004;-68
2021/04/23 12:25:31;;;;;;;3.57;1.90;;;20.80;19.50;;;;;;5108071;28;20950;-68
2021/04/23 12:28:20;;;;;;;3.93;2.53;;;20.90;20.80;;;;;;5108221;28;20445;-68
2021/04/23 12:30:52;;;;;;;2.60;1.87;;;20.80;20.10;;;;;;5104083;28;20884;-68
2021/04/23 12:33:20;;;;;;;3.60;1.93;;;20.70;19.60;;;;;;5108708;28;20442;-68
2021/04/23 12:35:50;;;;;;;4.07;1.97;;;20.70;18.40;;;;;;5107779;28;20928;-71
2021/04/23 12:38:35;;;;;;;3.73;2.40;;;20.60;19.00;;;;;;5098926;28;20427;-67
2021/04/23 12:41:14;;;;;;;5.80;2.37;;;20.50;18.50;;;;;;5094370;28;20794;-68
2021/04/23 12:43:42;;;;;;;6.70;3.30;;;20.50;19.70;;;;;;5097363;28;20523;-68
2021/04/23 12:46:23;;;;;;;4.97;2.20;;;20.50;19.40;;;;;;5104152;28;20478;-67
2021/04/23 12:49:06;;;;;;;5.00;2.23;;;20.60;19.80;;;;;;5082037;28;20527;-69
2021/04/23 12:51:35;;;;;;;7.73;3.17;;;20.60;19.00;;;;;;5073503;28;20438;-68
2021/04/23 12:54:03;;;;;;;6.80;3.20;;;20.40;18.10;;;;;;5082077;28;20511;-68
2021/04/23 12:56:31;;;;;;;4.47;1.90;;;20.40;19.50;;;;;;5094415;28;20431;-68
2021/04/23 12:58:59;;;;;;;8.40;2.40;;;20.40;20.20;;;;;;5093265;28;20431;-68
2021/04/23 13:01:26;;;;;;;6.07;2.87;;;20.30;19.70;;;;;;5094122;28;20793;-67
2021/04/23 13:04:07;;;;;;;6.57;2.77;;;20.30;20.70;;;;;;5093636;28;20451;-67
2021/04/23 13:06:34;;;;;;;5.50;2.63;;;20.40;20.00;;;;;;5092705;28;20478;-67
2021/04/23 13:09:03;;;;;;;3.90;1.70;;;20.30;20.40;;;;;;5093946;28;20435;-68
2021/04/23 13:11:30;;;;;;;5.73;2.70;;;20.20;19.90;;;;;;5093684;28;20435;-68